sensor_id;sensor_type;location;lat;lon;timestamp;P1;durP1;ratioP1;P2;durP2;ratioP2
36629;SDS011;36256;42.154;23.002;2023-03-19T00:00:31;20.63;;;9.73;;
36629;SDS011;36256;42.154;23.002;2023-03-19T00:02:57;13.48;;;6.68;;
36629;SDS011;36256;42.154;23.002;2023-03-19T00:05:24;13.63;;;8.23;;
36629;SDS011;36256;42.154;23.002;2023-03-19T00:07:51;12.75;;;7.65;;
36629;SDS011;36256;42.154;23.002;2023-03-19T00:10:18;14.52;;;8.05;;
36629;SDS011;36256;42.154;23.002;2023-03-19T00:12:44;13.18;;;7.70;;
36629;SDS011;36256;42.154;23.002;2023-03-19T00:15:11;12.00;;;7.07;;
36629;SDS011;36256;42.154;23.002;2023-03-19T00:17:43;13.02;;;6.90;;
36629;SDS011;36256;42.154;23.002;2023-03-19T00:20:10;16.00;;;8.88;;
36629;SDS011;36256;42.154;23.002;2023-03-19T00:22:38;15.32;;;9.07;;
36629;SDS011;36256;42.154;23.002;2023-03-19T00:27:32;10.45;;;7.00;;
36629;SDS011;36256;42.154;23.002;2023-03-19T00:29:58;17.90;;;8.00;;
36629;SDS011;36256;42.154;23.002;2023-03-19T00:32:27;11.15;;;7.18;;
36629;SDS011;36256;42.154;23.002;2023-03-19T00:34:53;12.05;;;7.00;;
36629;SDS011;36256;42.154;23.002;2023-03-19T00:37:20;16.67;;;7.95;;
36629;SDS011;36256;42.154;23.002;2023-03-19T00:42:14;14.65;;;7.75;;
36629;SDS011;36256;42.154;23.002;2023-03-19T00:44:40;9.65;;;5.82;;
36629;SDS011;36256;42.154;23.002;2023-03-19T00:47:07;14.52;;;7.07;;
36629;SDS011;36256;42.154;23.002;2023-03-19T00:49:34;13.43;;;7.00;;
36629;SDS011;36256;42.154;23.002;2023-03-19T00:52:00;14.60;;;7.65;;
36629;SDS011;36256;42.154;23.002;2023-03-19T00:54:27;13.90;;;7.18;;
36629;SDS011;36256;42.154;23.002;2023-03-19T00:56:53;8.40;;;5.43;;
36629;SDS011;36256;42.154;23.002;2023-03-19T00:59:20;17.33;;;7.95;;
36629;SDS011;36256;42.154;23.002;2023-03-19T01:01:46;12.98;;;7.47;;
36629;SDS011;36256;42.154;23.002;2023-03-19T01:04:13;12.82;;;7.32;;
36629;SDS011;36256;42.154;23.002;2023-03-19T01:06:40;13.32;;;7.75;;
36629;SDS011;36256;42.154;23.002;2023-03-19T01:09:07;14.50;;;7.40;;
36629;SDS011;36256;42.154;23.002;2023-03-19T01:11:33;15.50;;;7.90;;
36629;SDS011;36256;42.154;23.002;2023-03-19T01:14:00;10.93;;;5.60;;
36629;SDS011;36256;42.154;23.002;2023-03-19T01:18:54;11.65;;;6.85;;
36629;SDS011;36256;42.154;23.002;2023-03-19T01:21:21;11.25;;;7.07;;
36629;SDS011;36256;42.154;23.002;2023-03-19T01:23:47;15.63;;;6.50;;
36629;SDS011;36256;42.154;23.002;2023-03-19T01:26:14;11.48;;;5.72;;
36629;SDS011;36256;42.154;23.002;2023-03-19T01:28:41;12.60;;;7.20;;
36629;SDS011;36256;42.154;23.002;2023-03-19T01:31:08;14.27;;;7.28;;
36629;SDS011;36256;42.154;23.002;2023-03-19T01:33:35;14.13;;;6.95;;
36629;SDS011;36256;42.154;23.002;2023-03-19T01:36:03;14.30;;;6.85;;
36629;SDS011;36256;42.154;23.002;2023-03-19T01:38:31;18.65;;;7.22;;
36629;SDS011;36256;42.154;23.002;2023-03-19T01:40:58;10.73;;;5.13;;
36629;SDS011;36256;42.154;23.002;2023-03-19T01:43:25;12.38;;;6.80;;
36629;SDS011;36256;42.154;23.002;2023-03-19T01:46:00;11.32;;;6.70;;
36629;SDS011;36256;42.154;23.002;2023-03-19T01:48:36;14.27;;;7.07;;
36629;SDS011;36256;42.154;23.002;2023-03-19T01:51:06;12.55;;;6.95;;
36629;SDS011;36256;42.154;23.002;2023-03-19T01:53:36;14.27;;;7.10;;
36629;SDS011;36256;42.154;23.002;2023-03-19T01:56:09;13.57;;;7.45;;
36629;SDS011;36256;42.154;23.002;2023-03-19T01:58:59;13.07;;;7.13;;
36629;SDS011;36256;42.154;23.002;2023-03-19T02:01:29;13.52;;;7.10;;
36629;SDS011;36256;42.154;23.002;2023-03-19T02:04:00;12.15;;;7.07;;
36629;SDS011;36256;42.154;23.002;2023-03-19T02:06:26;8.70;;;4.97;;
36629;SDS011;36256;42.154;23.002;2023-03-19T02:08:55;14.02;;;6.70;;
36629;SDS011;36256;42.154;23.002;2023-03-19T02:11:23;11.23;;;6.22;;
36629;SDS011;36256;42.154;23.002;2023-03-19T02:13:51;9.82;;;6.60;;
36629;SDS011;36256;42.154;23.002;2023-03-19T02:16:18;12.90;;;6.75;;
36629;SDS011;36256;42.154;23.002;2023-03-19T02:18:45;9.13;;;5.10;;
36629;SDS011;36256;42.154;23.002;2023-03-19T02:21:13;12.25;;;6.38;;
36629;SDS011;36256;42.154;23.002;2023-03-19T02:23:45;10.07;;;6.13;;
36629;SDS011;36256;42.154;23.002;2023-03-19T02:26:22;12.13;;;5.88;;
36629;SDS011;36256;42.154;23.002;2023-03-19T02:28:52;11.30;;;6.40;;
36629;SDS011;36256;42.154;23.002;2023-03-19T02:31:19;10.40;;;6.53;;
36629;SDS011;36256;42.154;23.002;2023-03-19T02:36:24;12.45;;;6.25;;
36629;SDS011;36256;42.154;23.002;2023-03-19T02:38:56;9.95;;;6.00;;
36629;SDS011;36256;42.154;23.002;2023-03-19T02:41:26;11.77;;;6.47;;
36629;SDS011;36256;42.154;23.002;2023-03-19T02:43:54;13.30;;;5.97;;
36629;SDS011;36256;42.154;23.002;2023-03-19T02:46:23;10.63;;;5.78;;
36629;SDS011;36256;42.154;23.002;2023-03-19T02:48:50;12.60;;;5.95;;
36629;SDS011;36256;42.154;23.002;2023-03-19T02:51:17;10.63;;;6.20;;
36629;SDS011;36256;42.154;23.002;2023-03-19T02:53:45;10.00;;;5.60;;
36629;SDS011;36256;42.154;23.002;2023-03-19T02:56:12;10.88;;;6.20;;
36629;SDS011;36256;42.154;23.002;2023-03-19T02:58:39;11.90;;;6.63;;
36629;SDS011;36256;42.154;23.002;2023-03-19T03:01:05;19.73;;;9.23;;
36629;SDS011;36256;42.154;23.002;2023-03-19T03:03:32;15.18;;;8.80;;
36629;SDS011;36256;42.154;23.002;2023-03-19T03:05:59;19.30;;;9.25;;
36629;SDS011;36256;42.154;23.002;2023-03-19T03:08:26;10.43;;;6.22;;
36629;SDS011;36256;42.154;23.002;2023-03-19T03:10:53;16.30;;;8.30;;
36629;SDS011;36256;42.154;23.002;2023-03-19T03:13:20;13.48;;;7.72;;
36629;SDS011;36256;42.154;23.002;2023-03-19T03:15:46;13.90;;;6.00;;
36629;SDS011;36256;42.154;23.002;2023-03-19T03:18:13;11.23;;;5.65;;
36629;SDS011;36256;42.154;23.002;2023-03-19T03:20:39;9.55;;;5.40;;
36629;SDS011;36256;42.154;23.002;2023-03-19T03:23:06;20.90;;;7.15;;
36629;SDS011;36256;42.154;23.002;2023-03-19T03:25:32;10.80;;;5.90;;
36629;SDS011;36256;42.154;23.002;2023-03-19T03:28:00;14.18;;;7.90;;
36629;SDS011;36256;42.154;23.002;2023-03-19T03:30:27;14.32;;;8.27;;
36629;SDS011;36256;42.154;23.002;2023-03-19T03:32:54;17.25;;;9.30;;
36629;SDS011;36256;42.154;23.002;2023-03-19T03:35:21;16.13;;;8.90;;
36629;SDS011;36256;42.154;23.002;2023-03-19T03:37:48;14.63;;;8.38;;
36629;SDS011;36256;42.154;23.002;2023-03-19T03:40:16;18.45;;;10.38;;
36629;SDS011;36256;42.154;23.002;2023-03-19T03:42:43;14.00;;;7.90;;
36629;SDS011;36256;42.154;23.002;2023-03-19T03:45:10;12.82;;;6.90;;
36629;SDS011;36256;42.154;23.002;2023-03-19T03:47:37;16.65;;;7.57;;
36629;SDS011;36256;42.154;23.002;2023-03-19T03:50:04;12.20;;;7.25;;
36629;SDS011;36256;42.154;23.002;2023-03-19T03:52:32;11.77;;;6.80;;
36629;SDS011;36256;42.154;23.002;2023-03-19T03:54:59;13.77;;;6.97;;
36629;SDS011;36256;42.154;23.002;2023-03-19T03:57:26;10.93;;;6.35;;
36629;SDS011;36256;42.154;23.002;2023-03-19T03:59:53;10.40;;;6.80;;
36629;SDS011;36256;42.154;23.002;2023-03-19T04:02:20;12.15;;;6.15;;
36629;SDS011;36256;42.154;23.002;2023-03-19T04:04:47;11.70;;;6.70;;
36629;SDS011;36256;42.154;23.002;2023-03-19T04:07:14;12.13;;;6.35;;
36629;SDS011;36256;42.154;23.002;2023-03-19T04:09:41;14.27;;;6.00;;
36629;SDS011;36256;42.154;23.002;2023-03-19T04:12:07;13.60;;;7.45;;
36629;SDS011;36256;42.154;23.002;2023-03-19T04:14:34;15.25;;;7.65;;
36629;SDS011;36256;42.154;23.002;2023-03-19T04:19:28;14.80;;;7.25;;
36629;SDS011;36256;42.154;23.002;2023-03-19T04:21:54;14.80;;;8.68;;
36629;SDS011;36256;42.154;23.002;2023-03-19T04:24:21;13.40;;;6.63;;
36629;SDS011;36256;42.154;23.002;2023-03-19T04:26:48;14.70;;;8.40;;
36629;SDS011;36256;42.154;23.002;2023-03-19T04:29:15;16.80;;;8.70;;
36629;SDS011;36256;42.154;23.002;2023-03-19T04:31:43;10.82;;;6.30;;
36629;SDS011;36256;42.154;23.002;2023-03-19T04:34:11;12.23;;;6.15;;
36629;SDS011;36256;42.154;23.002;2023-03-19T04:39:04;10.65;;;5.72;;
36629;SDS011;36256;42.154;23.002;2023-03-19T04:41:31;9.57;;;5.88;;
36629;SDS011;36256;42.154;23.002;2023-03-19T04:43:58;10.52;;;6.15;;
36629;SDS011;36256;42.154;23.002;2023-03-19T04:46:24;11.18;;;6.22;;
36629;SDS011;36256;42.154;23.002;2023-03-19T04:48:51;9.70;;;5.97;;
36629;SDS011;36256;42.154;23.002;2023-03-19T04:51:18;9.95;;;5.88;;
36629;SDS011;36256;42.154;23.002;2023-03-19T04:53:46;9.93;;;5.90;;
36629;SDS011;36256;42.154;23.002;2023-03-19T04:56:14;11.38;;;7.10;;
36629;SDS011;36256;42.154;23.002;2023-03-19T04:58:41;14.77;;;7.65;;
36629;SDS011;36256;42.154;23.002;2023-03-19T05:01:08;22.50;;;10.68;;
36629;SDS011;36256;42.154;23.002;2023-03-19T05:03:35;22.42;;;10.95;;
36629;SDS011;36256;42.154;23.002;2023-03-19T05:08:29;18.35;;;10.07;;
36629;SDS011;36256;42.154;23.002;2023-03-19T05:10:55;21.65;;;11.32;;
36629;SDS011;36256;42.154;23.002;2023-03-19T05:13:22;15.45;;;8.52;;
36629;SDS011;36256;42.154;23.002;2023-03-19T05:15:51;22.83;;;11.57;;
36629;SDS011;36256;42.154;23.002;2023-03-19T05:18:19;26.02;;;12.23;;
36629;SDS011;36256;42.154;23.002;2023-03-19T05:20:46;25.35;;;12.85;;
36629;SDS011;36256;42.154;23.002;2023-03-19T05:23:13;31.13;;;16.50;;
36629;SDS011;36256;42.154;23.002;2023-03-19T05:25:40;20.10;;;11.30;;
36629;SDS011;36256;42.154;23.002;2023-03-19T05:28:06;24.23;;;12.45;;
36629;SDS011;36256;42.154;23.002;2023-03-19T05:30:34;21.42;;;10.98;;
36629;SDS011;36256;42.154;23.002;2023-03-19T05:33:01;23.05;;;12.48;;
36629;SDS011;36256;42.154;23.002;2023-03-19T05:37:55;18.45;;;11.05;;
36629;SDS011;36256;42.154;23.002;2023-03-19T05:40:22;22.10;;;10.70;;
36629;SDS011;36256;42.154;23.002;2023-03-19T05:42:49;13.15;;;7.47;;
36629;SDS011;36256;42.154;23.002;2023-03-19T05:45:16;22.08;;;10.88;;
36629;SDS011;36256;42.154;23.002;2023-03-19T05:47:45;19.38;;;10.13;;
36629;SDS011;36256;42.154;23.002;2023-03-19T05:50:13;21.30;;;11.98;;
36629;SDS011;36256;42.154;23.002;2023-03-19T05:52:40;19.55;;;11.07;;
36629;SDS011;36256;42.154;23.002;2023-03-19T05:55:07;22.88;;;14.50;;
36629;SDS011;36256;42.154;23.002;2023-03-19T05:57:34;21.13;;;13.07;;
36629;SDS011;36256;42.154;23.002;2023-03-19T06:00:02;25.13;;;13.90;;
36629;SDS011;36256;42.154;23.002;2023-03-19T06:02:32;22.63;;;12.20;;
36629;SDS011;36256;42.154;23.002;2023-03-19T06:05:00;21.67;;;12.75;;
36629;SDS011;36256;42.154;23.002;2023-03-19T06:07:26;18.00;;;11.02;;
36629;SDS011;36256;42.154;23.002;2023-03-19T06:09:53;20.80;;;12.73;;
36629;SDS011;36256;42.154;23.002;2023-03-19T06:12:20;26.52;;;13.45;;
36629;SDS011;36256;42.154;23.002;2023-03-19T06:14:47;24.90;;;12.40;;
36629;SDS011;36256;42.154;23.002;2023-03-19T06:30:28;22.80;;;15.00;;
36629;SDS011;36256;42.154;23.002;2023-03-19T06:32:54;17.23;;;11.40;;
36629;SDS011;36256;42.154;23.002;2023-03-19T06:35:21;14.60;;;8.50;;
36629;SDS011;36256;42.154;23.002;2023-03-19T06:37:48;15.63;;;9.27;;
36629;SDS011;36256;42.154;23.002;2023-03-19T06:40:15;17.30;;;10.27;;
36629;SDS011;36256;42.154;23.002;2023-03-19T06:42:45;14.57;;;9.70;;
36629;SDS011;36256;42.154;23.002;2023-03-19T06:45:13;15.52;;;8.82;;
36629;SDS011;36256;42.154;23.002;2023-03-19T06:47:42;14.13;;;8.38;;
36629;SDS011;36256;42.154;23.002;2023-03-19T06:50:11;13.98;;;8.63;;
36629;SDS011;36256;42.154;23.002;2023-03-19T06:52:39;12.52;;;8.32;;
36629;SDS011;36256;42.154;23.002;2023-03-19T06:55:06;15.90;;;8.13;;
36629;SDS011;36256;42.154;23.002;2023-03-19T06:57:34;14.77;;;9.30;;
36629;SDS011;36256;42.154;23.002;2023-03-19T07:00:01;15.10;;;9.48;;
36629;SDS011;36256;42.154;23.002;2023-03-19T07:02:29;16.33;;;10.80;;
36629;SDS011;36256;42.154;23.002;2023-03-19T07:04:56;18.83;;;11.88;;
36629;SDS011;36256;42.154;23.002;2023-03-19T07:07:23;14.10;;;9.23;;
36629;SDS011;36256;42.154;23.002;2023-03-19T07:09:49;18.33;;;9.65;;
36629;SDS011;36256;42.154;23.002;2023-03-19T07:12:16;12.48;;;8.32;;
36629;SDS011;36256;42.154;23.002;2023-03-19T07:14:43;16.42;;;8.63;;
36629;SDS011;36256;42.154;23.002;2023-03-19T07:17:09;15.83;;;8.33;;
36629;SDS011;36256;42.154;23.002;2023-03-19T07:19:36;13.57;;;8.13;;
36629;SDS011;36256;42.154;23.002;2023-03-19T07:22:03;15.32;;;8.90;;
36629;SDS011;36256;42.154;23.002;2023-03-19T07:24:29;13.13;;;8.52;;
36629;SDS011;36256;42.154;23.002;2023-03-19T07:26:56;16.27;;;8.77;;
36629;SDS011;36256;42.154;23.002;2023-03-19T07:29:23;18.23;;;9.55;;
36629;SDS011;36256;42.154;23.002;2023-03-19T07:31:50;14.60;;;9.48;;
36629;SDS011;36256;42.154;23.002;2023-03-19T07:34:17;22.80;;;10.73;;
36629;SDS011;36256;42.154;23.002;2023-03-19T07:36:44;13.38;;;7.60;;
36629;SDS011;36256;42.154;23.002;2023-03-19T07:39:10;18.55;;;8.32;;
36629;SDS011;36256;42.154;23.002;2023-03-19T07:41:37;15.03;;;7.50;;
36629;SDS011;36256;42.154;23.002;2023-03-19T07:47:39;12.32;;;7.10;;
36629;SDS011;36256;42.154;23.002;2023-03-19T07:50:06;12.77;;;7.70;;
36629;SDS011;36256;42.154;23.002;2023-03-19T07:52:34;12.27;;;7.22;;
36629;SDS011;36256;42.154;23.002;2023-03-19T07:55:00;10.90;;;6.70;;
36629;SDS011;36256;42.154;23.002;2023-03-19T07:57:27;9.73;;;6.22;;
36629;SDS011;36256;42.154;23.002;2023-03-19T07:59:53;13.60;;;6.60;;
36629;SDS011;36256;42.154;23.002;2023-03-19T08:02:20;17.30;;;6.47;;
36629;SDS011;36256;42.154;23.002;2023-03-19T08:04:49;10.80;;;6.10;;
36629;SDS011;36256;42.154;23.002;2023-03-19T08:07:16;13.07;;;6.70;;
36629;SDS011;36256;42.154;23.002;2023-03-19T08:09:42;9.35;;;6.03;;
36629;SDS011;36256;42.154;23.002;2023-03-19T08:12:09;8.23;;;5.10;;
36629;SDS011;36256;42.154;23.002;2023-03-19T08:14:36;8.77;;;4.57;;
36629;SDS011;36256;42.154;23.002;2023-03-19T08:17:03;9.05;;;5.40;;
36629;SDS011;36256;42.154;23.002;2023-03-19T08:19:29;8.05;;;5.57;;
36629;SDS011;36256;42.154;23.002;2023-03-19T08:21:57;8.10;;;5.45;;
36629;SDS011;36256;42.154;23.002;2023-03-19T08:24:23;11.37;;;5.27;;
36629;SDS011;36256;42.154;23.002;2023-03-19T08:26:50;10.75;;;5.68;;
36629;SDS011;36256;42.154;23.002;2023-03-19T08:29:17;14.07;;;5.60;;
36629;SDS011;36256;42.154;23.002;2023-03-19T08:31:44;17.67;;;5.55;;
36629;SDS011;36256;42.154;23.002;2023-03-19T08:36:38;52.50;;;10.77;;
36629;SDS011;36256;42.154;23.002;2023-03-19T08:39:05;25.02;;;6.22;;
36629;SDS011;36256;42.154;23.002;2023-03-19T08:41:32;20.63;;;6.07;;
36629;SDS011;36256;42.154;23.002;2023-03-19T08:43:58;27.77;;;8.27;;
36629;SDS011;36256;42.154;23.002;2023-03-19T08:46:25;57.75;;;19.95;;
36629;SDS011;36256;42.154;23.002;2023-03-19T08:48:53;20.88;;;6.95;;
36629;SDS011;36256;42.154;23.002;2023-03-19T08:51:20;24.88;;;6.38;;
36629;SDS011;36256;42.154;23.002;2023-03-19T08:53:49;15.80;;;5.63;;
36629;SDS011;36256;42.154;23.002;2023-03-19T08:56:16;15.57;;;5.80;;
36629;SDS011;36256;42.154;23.002;2023-03-19T08:58:43;20.13;;;7.55;;
36629;SDS011;36256;42.154;23.002;2023-03-19T09:03:40;22.92;;;7.20;;
36629;SDS011;36256;42.154;23.002;2023-03-19T09:06:08;16.35;;;5.40;;
36629;SDS011;36256;42.154;23.002;2023-03-19T09:08:36;18.88;;;6.30;;
36629;SDS011;36256;42.154;23.002;2023-03-19T09:11:03;19.50;;;7.20;;
36629;SDS011;36256;42.154;23.002;2023-03-19T09:15:57;20.00;;;5.20;;
36629;SDS011;36256;42.154;23.002;2023-03-19T09:18:24;18.77;;;5.00;;
36629;SDS011;36256;42.154;23.002;2023-03-19T09:20:51;13.90;;;5.20;;
36629;SDS011;36256;42.154;23.002;2023-03-19T09:23:19;18.45;;;4.60;;
36629;SDS011;36256;42.154;23.002;2023-03-19T09:25:46;16.42;;;4.40;;
36629;SDS011;36256;42.154;23.002;2023-03-19T09:28:13;15.90;;;4.80;;
36629;SDS011;36256;42.154;23.002;2023-03-19T09:30:40;14.63;;;4.80;;
36629;SDS011;36256;42.154;23.002;2023-03-19T09:33:07;13.43;;;6.00;;
36629;SDS011;36256;42.154;23.002;2023-03-19T09:35:33;13.10;;;5.10;;
36629;SDS011;36256;42.154;23.002;2023-03-19T09:38:01;9.43;;;4.18;;
36629;SDS011;36256;42.154;23.002;2023-03-19T09:40:36;9.93;;;4.05;;
36629;SDS011;36256;42.154;23.002;2023-03-19T09:49:42;7.90;;;4.40;;
36629;SDS011;36256;42.154;23.002;2023-03-19T09:58:27;54.83;;;5.80;;
36629;SDS011;36256;42.154;23.002;2023-03-19T10:00:57;7.50;;;3.42;;
36629;SDS011;36256;42.154;23.002;2023-03-19T10:11:45;10.35;;;3.60;;
36629;SDS011;36256;42.154;23.002;2023-03-19T10:17:17;5.20;;;2.67;;
36629;SDS011;36256;42.154;23.002;2023-03-19T10:19:54;4.82;;;2.85;;
36629;SDS011;36256;42.154;23.002;2023-03-19T10:22:31;9.25;;;3.05;;
36629;SDS011;36256;42.154;23.002;2023-03-19T10:25:03;6.10;;;3.20;;
36629;SDS011;36256;42.154;23.002;2023-03-19T10:27:36;3.90;;;2.88;;
36629;SDS011;36256;42.154;23.002;2023-03-19T10:30:13;3.80;;;2.40;;
36629;SDS011;36256;42.154;23.002;2023-03-19T10:32:45;4.85;;;2.80;;
36629;SDS011;36256;42.154;23.002;2023-03-19T10:35:19;2.88;;;2.20;;
36629;SDS011;36256;42.154;23.002;2023-03-19T10:37:49;4.28;;;2.72;;
36629;SDS011;36256;42.154;23.002;2023-03-19T10:40:23;4.00;;;2.20;;
36629;SDS011;36256;42.154;23.002;2023-03-19T10:43:03;3.70;;;2.10;;
36629;SDS011;36256;42.154;23.002;2023-03-19T10:45:38;3.80;;;2.30;;
36629;SDS011;36256;42.154;23.002;2023-03-19T10:48:05;3.15;;;2.10;;
36629;SDS011;36256;42.154;23.002;2023-03-19T10:50:48;3.95;;;2.38;;
36629;SDS011;36256;42.154;23.002;2023-03-19T10:55:54;3.70;;;1.95;;
36629;SDS011;36256;42.154;23.002;2023-03-19T10:58:26;5.68;;;3.83;;
36629;SDS011;36256;42.154;23.002;2023-03-19T11:00:55;4.28;;;2.30;;
36629;SDS011;36256;42.154;23.002;2023-03-19T11:08:49;4.60;;;2.38;;
36629;SDS011;36256;42.154;23.002;2023-03-19T11:11:34;4.00;;;2.78;;
36629;SDS011;36256;42.154;23.002;2023-03-19T11:14:08;5.65;;;2.53;;
36629;SDS011;36256;42.154;23.002;2023-03-19T11:16:57;4.85;;;3.05;;
36629;SDS011;36256;42.154;23.002;2023-03-19T11:19:31;5.43;;;2.53;;
36629;SDS011;36256;42.154;23.002;2023-03-19T11:22:21;6.13;;;2.83;;
36629;SDS011;36256;42.154;23.002;2023-03-19T11:24:58;3.83;;;3.25;;
36629;SDS011;36256;42.154;23.002;2023-03-19T11:27:27;43.13;;;6.00;;
36629;SDS011;36256;42.154;23.002;2023-03-19T11:30:00;5.45;;;2.80;;
36629;SDS011;36256;42.154;23.002;2023-03-19T11:35:24;4.47;;;2.75;;
36629;SDS011;36256;42.154;23.002;2023-03-19T11:38:05;5.53;;;3.42;;
36629;SDS011;36256;42.154;23.002;2023-03-19T11:40:42;9.15;;;6.60;;
36629;SDS011;36256;42.154;23.002;2023-03-19T11:48:45;5.88;;;2.88;;
36629;SDS011;36256;42.154;23.002;2023-03-19T12:08:30;60.25;;;28.75;;
36629;SDS011;36256;42.154;23.002;2023-03-19T12:17:01;36.40;;;15.18;;
36629;SDS011;36256;42.154;23.002;2023-03-19T12:19:36;2.88;;;2.17;;
36629;SDS011;36256;42.154;23.002;2023-03-19T12:22:08;3.90;;;2.55;;
36629;SDS011;36256;42.154;23.002;2023-03-19T12:28:13;3.85;;;2.58;;
36629;SDS011;36256;42.154;23.002;2023-03-19T12:37:15;6.55;;;3.10;;
36629;SDS011;36256;42.154;23.002;2023-03-19T12:39:17;4.88;;;2.50;;
36629;SDS011;36256;42.154;23.002;2023-03-19T12:41:49;5.38;;;2.63;;
36629;SDS011;36256;42.154;23.002;2023-03-19T12:44:22;48.85;;;19.80;;
36629;SDS011;36256;42.154;23.002;2023-03-19T12:49:34;7.45;;;3.60;;
36629;SDS011;36256;42.154;23.002;2023-03-19T12:52:16;5.95;;;2.72;;
36629;SDS011;36256;42.154;23.002;2023-03-19T12:54:54;3.88;;;3.00;;
36629;SDS011;36256;42.154;23.002;2023-03-19T12:57:46;3.63;;;2.63;;
36629;SDS011;36256;42.154;23.002;2023-03-19T13:05:33;4.18;;;2.78;;
36629;SDS011;36256;42.154;23.002;2023-03-19T13:10:53;2.67;;;2.38;;
36629;SDS011;36256;42.154;23.002;2023-03-19T13:19:19;4.35;;;2.50;;
36629;SDS011;36256;42.154;23.002;2023-03-19T13:21:54;3.33;;;2.33;;
36629;SDS011;36256;42.154;23.002;2023-03-19T13:24:25;3.65;;;2.53;;
36629;SDS011;36256;42.154;23.002;2023-03-19T13:26:55;3.08;;;2.03;;
36629;SDS011;36256;42.154;23.002;2023-03-19T13:29:29;5.70;;;2.20;;
36629;SDS011;36256;42.154;23.002;2023-03-19T13:32:02;7.75;;;2.78;;
36629;SDS011;36256;42.154;23.002;2023-03-19T13:34:33;4.20;;;2.70;;
36629;SDS011;36256;42.154;23.002;2023-03-19T13:39:45;5.13;;;3.10;;
36629;SDS011;36256;42.154;23.002;2023-03-19T13:42:21;5.15;;;3.35;;
36629;SDS011;36256;42.154;23.002;2023-03-19T13:44:52;6.93;;;2.58;;
36629;SDS011;36256;42.154;23.002;2023-03-19T14:01:04;3.55;;;2.10;;
36629;SDS011;36256;42.154;23.002;2023-03-19T14:03:33;4.32;;;2.28;;
36629;SDS011;36256;42.154;23.002;2023-03-19T14:06:02;4.60;;;2.30;;
36629;SDS011;36256;42.154;23.002;2023-03-19T14:11:07;4.68;;;2.13;;
36629;SDS011;36256;42.154;23.002;2023-03-19T14:13:36;2.78;;;2.25;;
36629;SDS011;36256;42.154;23.002;2023-03-19T14:16:18;3.08;;;2.00;;
36629;SDS011;36256;42.154;23.002;2023-03-19T14:19:02;2.70;;;1.80;;
36629;SDS011;36256;42.154;23.002;2023-03-19T14:24:28;4.18;;;2.08;;
36629;SDS011;36256;42.154;23.002;2023-03-19T14:29:55;3.60;;;2.30;;
36629;SDS011;36256;42.154;23.002;2023-03-19T14:32:29;6.00;;;1.90;;
36629;SDS011;36256;42.154;23.002;2023-03-19T14:35:03;3.92;;;2.10;;
36629;SDS011;36256;42.154;23.002;2023-03-19T14:48:07;1.95;;;1.50;;
36629;SDS011;36256;42.154;23.002;2023-03-19T14:50:49;2.85;;;1.80;;
36629;SDS011;36256;42.154;23.002;2023-03-19T14:53:36;1.92;;;1.50;;
36629;SDS011;36256;42.154;23.002;2023-03-19T14:56:11;4.20;;;1.95;;
36629;SDS011;36256;42.154;23.002;2023-03-19T14:58:47;5.18;;;3.00;;
36629;SDS011;36256;42.154;23.002;2023-03-19T15:01:24;4.65;;;3.65;;
36629;SDS011;36256;42.154;23.002;2023-03-19T15:04:03;6.00;;;3.95;;
36629;SDS011;36256;42.154;23.002;2023-03-19T15:06:43;10.02;;;6.25;;
36629;SDS011;36256;42.154;23.002;2023-03-19T15:09:23;18.17;;;9.82;;
36629;SDS011;36256;42.154;23.002;2023-03-19T15:11:56;21.38;;;9.63;;
36629;SDS011;36256;42.154;23.002;2023-03-19T15:17:26;16.75;;;11.52;;
36629;SDS011;36256;42.154;23.002;2023-03-19T15:19:54;10.88;;;7.10;;
36629;SDS011;36256;42.154;23.002;2023-03-19T15:22:26;7.93;;;4.80;;
36629;SDS011;36256;42.154;23.002;2023-03-19T15:25:06;5.93;;;3.20;;
36629;SDS011;36256;42.154;23.002;2023-03-19T15:27:35;10.20;;;6.15;;
36629;SDS011;36256;42.154;23.002;2023-03-19T15:32:44;10.63;;;5.80;;
36629;SDS011;36256;42.154;23.002;2023-03-19T15:35:26;11.35;;;6.20;;
36629;SDS011;36256;42.154;23.002;2023-03-19T15:37:57;12.27;;;6.43;;
36629;SDS011;36256;42.154;23.002;2023-03-19T15:40:28;17.88;;;8.07;;
36629;SDS011;36256;42.154;23.002;2023-03-19T15:42:59;13.70;;;7.70;;
36629;SDS011;36256;42.154;23.002;2023-03-19T15:45:28;11.77;;;6.35;;
36629;SDS011;36256;42.154;23.002;2023-03-19T15:50:26;18.02;;;9.52;;
36629;SDS011;36256;42.154;23.002;2023-03-19T15:52:58;12.18;;;6.10;;
36629;SDS011;36256;42.154;23.002;2023-03-19T15:55:27;14.02;;;7.05;;
36629;SDS011;36256;42.154;23.002;2023-03-19T16:00:22;12.00;;;7.45;;
36629;SDS011;36256;42.154;23.002;2023-03-19T16:07:58;6.55;;;2.90;;
36629;SDS011;36256;42.154;23.002;2023-03-19T16:12:54;6.37;;;2.30;;
36629;SDS011;36256;42.154;23.002;2023-03-19T16:17:55;4.47;;;2.42;;
36629;SDS011;36256;42.154;23.002;2023-03-19T16:21:02;5.38;;;2.70;;
36629;SDS011;36256;42.154;23.002;2023-03-19T16:23:40;5.63;;;3.20;;
36629;SDS011;36256;42.154;23.002;2023-03-19T16:28:45;4.32;;;2.50;;
36629;SDS011;36256;42.154;23.002;2023-03-19T16:31:19;7.57;;;3.97;;
36629;SDS011;36256;42.154;23.002;2023-03-19T16:33:51;4.03;;;2.83;;
36629;SDS011;36256;42.154;23.002;2023-03-19T16:36:18;17.20;;;12.00;;
36629;SDS011;36256;42.154;23.002;2023-03-19T16:38:55;22.58;;;14.10;;
36629;SDS011;36256;42.154;23.002;2023-03-19T16:41:42;13.63;;;9.05;;
36629;SDS011;36256;42.154;23.002;2023-03-19T16:44:14;2.95;;;2.22;;
36629;SDS011;36256;42.154;23.002;2023-03-19T16:46:43;2.20;;;1.90;;
36629;SDS011;36256;42.154;23.002;2023-03-19T16:49:10;2.78;;;1.80;;
36629;SDS011;36256;42.154;23.002;2023-03-19T16:51:37;3.72;;;1.83;;
36629;SDS011;36256;42.154;23.002;2023-03-19T16:54:04;2.78;;;2.10;;
36629;SDS011;36256;42.154;23.002;2023-03-19T16:56:31;3.17;;;2.20;;
36629;SDS011;36256;42.154;23.002;2023-03-19T16:58:59;2.95;;;1.90;;
36629;SDS011;36256;42.154;23.002;2023-03-19T17:01:28;2.75;;;1.75;;
36629;SDS011;36256;42.154;23.002;2023-03-19T17:03:55;2.25;;;1.80;;
36629;SDS011;36256;42.154;23.002;2023-03-19T17:06:21;5.18;;;2.50;;
36629;SDS011;36256;42.154;23.002;2023-03-19T17:08:48;4.65;;;2.53;;
36629;SDS011;36256;42.154;23.002;2023-03-19T17:11:22;4.78;;;2.30;;
36629;SDS011;36256;42.154;23.002;2023-03-19T17:13:56;3.95;;;2.38;;
36629;SDS011;36256;42.154;23.002;2023-03-19T17:16:24;5.85;;;3.20;;
36629;SDS011;36256;42.154;23.002;2023-03-19T17:18:52;4.07;;;2.88;;
36629;SDS011;36256;42.154;23.002;2023-03-19T17:23:49;12.32;;;5.90;;
36629;SDS011;36256;42.154;23.002;2023-03-19T17:26:18;8.13;;;5.22;;
36629;SDS011;36256;42.154;23.002;2023-03-19T17:28:48;7.40;;;4.13;;
36629;SDS011;36256;42.154;23.002;2023-03-19T17:31:28;4.78;;;3.40;;
36629;SDS011;36256;42.154;23.002;2023-03-19T17:34:03;57.15;;;31.02;;
36629;SDS011;36256;42.154;23.002;2023-03-19T17:36:34;21.85;;;12.52;;
36629;SDS011;36256;42.154;23.002;2023-03-19T17:39:01;14.23;;;8.55;;
36629;SDS011;36256;42.154;23.002;2023-03-19T17:43:55;18.42;;;10.77;;
36629;SDS011;36256;42.154;23.002;2023-03-19T17:46:22;23.67;;;12.77;;
36629;SDS011;36256;42.154;23.002;2023-03-19T17:48:51;40.10;;;15.77;;
36629;SDS011;36256;42.154;23.002;2023-03-19T17:51:19;26.52;;;14.43;;
36629;SDS011;36256;42.154;23.002;2023-03-19T17:53:49;19.20;;;11.32;;